Lakeside, MT (59922)

9:08 PM MDT on June 26, 2017 (GMT -0600)
MFLB08 | | Change Station

Elev 2889 ft 48.06 °N, 114.13 °W | Updated 49 days ago

Partly Cloudy
Partly Cloudy
45.0 °F
Feels Like 45 °F
N
3.0
Wind Variable Wind from NNE
Gusts 6.0 mph

Today
High -- | Low -- °F
--% Chance of Precip.
Yesterday
High -- | Low -- °F
Precip. -- in
Pressure 29.73 in
Visibility 10.0 miles
Clouds Clear
Windchill 45 °F
Dew Point Not available.
Humidity Not available.
Rainfall 0.00 in
Snow Depth Not available.
5:38 AM 9:40 PM
Waxing Crescent, 13% visible
METAR KMSO 270253Z 29007KT 10SM CLR 26/07 A2979 RMK AO2 PK WND 22035/0209 RAB07E34 SLP066 P0000 60000 T02560072 50008
Pressure 29.73 in
Visibility 10.0 miles
Clouds Clear
Windchill 45 °F
Dew Point Not available.
Humidity Not available.
Rainfall 0.00 in
Snow Depth Not available.
5:38 AM 9:40 PM
Waxing Crescent, 13% visible
METAR KMSO 270253Z 29007KT 10SM CLR 26/07 A2979 RMK AO2 PK WND 22035/0209 RAB07E34 SLP066 P0000 60000 T02560072 50008

Get Severe Weather Alerts

Thanks for signing up!

Be on the lookout for a verification email in your inbox.

You'll start receiving the daily forecast at 6 AM.

×

10-Day Weather Forecast

Almanac

Astronomy

Jun. 26, 2017 Rise Set
Actual Time
Civil Twilight
Nautical Twilight
Astronomical Twilight
Moon
Length of Visible Light
Length of Day
Tomorrow will be .
, % of the Moon is Illuminated

Today's Extremes

State Highs State Lows

Community

WunderPhotos

Category 6

Welcome to Category 6. This is the collective home for Weather Underground's featured writeups by Dr. Jeff Masters (right), Bob Henson (left), Chris Burt, and other regular contributors.

Nearby

Air Quality

  Air Quality AQ Index Pollutant
Not available.

Snow Depth

Station Depth Elevation

Earthquake Activity

City Distance Mag. Time & Date
Minimum magnitude displayed is 2.5.

Coastal Water Temperatures

Place Temperature

Stations

Nearby Weather Stations

Station Location Temp. Windchill Dew Point Humidity Wind Precip. Elev Updated Type
                   

Watches & Warnings

There are currently no watches in effect.